sensor_id;sensor_type;location;lat;lon;timestamp;temperature;humidity
22544;DHT22;11438;52.044;8.716;2023-07-31T00:00:35;20.90;99.40
22544;DHT22;11438;52.044;8.716;2023-07-31T00:03:01;20.90;99.30
22544;DHT22;11438;52.044;8.716;2023-07-31T00:05:26;20.80;99.20
22544;DHT22;11438;52.044;8.716;2023-07-31T00:07:52;20.80;99.10
22544;DHT22;11438;52.044;8.716;2023-07-31T00:10:19;20.80;99.00
22544;DHT22;11438;52.044;8.716;2023-07-31T00:12:45;20.80;99.20
22544;DHT22;11438;52.044;8.716;2023-07-31T00:15:11;20.80;99.30
22544;DHT22;11438;52.044;8.716;2023-07-31T00:17:37;20.80;99.40
22544;DHT22;11438;52.044;8.716;2023-07-31T00:20:03;20.80;99.40
22544;DHT22;11438;52.044;8.716;2023-07-31T00:22:28;20.80;99.50
22544;DHT22;11438;52.044;8.716;2023-07-31T00:24:55;20.70;99.60
22544;DHT22;11438;52.044;8.716;2023-07-31T00:27:21;20.80;99.70
22544;DHT22;11438;52.044;8.716;2023-07-31T00:29:46;20.70;99.80
22544;DHT22;11438;52.044;8.716;2023-07-31T00:32:12;20.80;99.80
22544;DHT22;11438;52.044;8.716;2023-07-31T00:34:38;20.80;99.90
22544;DHT22;11438;52.044;8.716;2023-07-31T00:37:04;20.80;99.90
22544;DHT22;11438;52.044;8.716;2023-07-31T00:39:30;20.80;99.90
22544;DHT22;11438;52.044;8.716;2023-07-31T00:41:56;20.80;99.90
22544;DHT22;11438;52.044;8.716;2023-07-31T00:44:22;20.80;99.90
22544;DHT22;11438;52.044;8.716;2023-07-31T00:46:48;20.80;99.90
22544;DHT22;11438;52.044;8.716;2023-07-31T00:49:15;20.80;99.90
22544;DHT22;11438;52.044;8.716;2023-07-31T00:51:41;20.90;99.90
22544;DHT22;11438;52.044;8.716;2023-07-31T00:54:07;20.80;99.90
22544;DHT22;11438;52.044;8.716;2023-07-31T00:56:33;20.80;99.90
22544;DHT22;11438;52.044;8.716;2023-07-31T00:58:59;20.80;99.90
22544;DHT22;11438;52.044;8.716;2023-07-31T01:01:25;20.80;99.90
22544;DHT22;11438;52.044;8.716;2023-07-31T01:03:51;20.80;99.90
22544;DHT22;11438;52.044;8.716;2023-07-31T01:06:40;20.80;99.90
22544;DHT22;11438;52.044;8.716;2023-07-31T01:09:34;20.80;99.90
22544;DHT22;11438;52.044;8.716;2023-07-31T01:12:03;20.80;99.90
22544;DHT22;11438;52.044;8.716;2023-07-31T01:14:29;20.80;99.90
22544;DHT22;11438;52.044;8.716;2023-07-31T01:16:55;20.80;99.90
22544;DHT22;11438;52.044;8.716;2023-07-31T01:19:23;20.80;99.90
22544;DHT22;11438;52.044;8.716;2023-07-31T01:25:10;20.80;99.90
22544;DHT22;11438;52.044;8.716;2023-07-31T01:28:04;20.80;99.90
22544;DHT22;11438;52.044;8.716;2023-07-31T01:30:39;20.80;99.90
22544;DHT22;11438;52.044;8.716;2023-07-31T01:33:06;20.80;99.90
22544;DHT22;11438;52.044;8.716;2023-07-31T01:35:37;20.70;99.90
22544;DHT22;11438;52.044;8.716;2023-07-31T01:38:04;20.70;99.90
22544;DHT22;11438;52.044;8.716;2023-07-31T01:40:30;20.70;99.90
22544;DHT22;11438;52.044;8.716;2023-07-31T01:42:55;20.70;99.90
22544;DHT22;11438;52.044;8.716;2023-07-31T01:45:21;20.60;99.90
22544;DHT22;11438;52.044;8.716;2023-07-31T01:47:47;20.70;99.90
22544;DHT22;11438;52.044;8.716;2023-07-31T01:50:12;20.60;99.90
22544;DHT22;11438;52.044;8.716;2023-07-31T01:52:38;20.60;99.90
22544;DHT22;11438;52.044;8.716;2023-07-31T01:55:04;20.60;99.90
22544;DHT22;11438;52.044;8.716;2023-07-31T01:57:30;20.50;99.90
22544;DHT22;11438;52.044;8.716;2023-07-31T01:59:56;20.50;99.90
22544;DHT22;11438;52.044;8.716;2023-07-31T02:02:22;20.50;99.90
22544;DHT22;11438;52.044;8.716;2023-07-31T02:04:48;20.50;99.90
22544;DHT22;11438;52.044;8.716;2023-07-31T02:07:14;20.50;99.90
22544;DHT22;11438;52.044;8.716;2023-07-31T02:09:40;20.50;99.90
22544;DHT22;11438;52.044;8.716;2023-07-31T02:12:05;20.40;99.80
22544;DHT22;11438;52.044;8.716;2023-07-31T02:14:34;20.40;99.80
22544;DHT22;11438;52.044;8.716;2023-07-31T02:16:59;20.30;99.80
22544;DHT22;11438;52.044;8.716;2023-07-31T02:19:25;20.30;99.80
22544;DHT22;11438;52.044;8.716;2023-07-31T02:21:51;20.30;99.80
22544;DHT22;11438;52.044;8.716;2023-07-31T02:24:16;20.30;99.80
22544;DHT22;11438;52.044;8.716;2023-07-31T02:26:42;20.30;99.90
22544;DHT22;11438;52.044;8.716;2023-07-31T02:29:08;20.30;99.90
22544;DHT22;11438;52.044;8.716;2023-07-31T02:31:34;20.20;99.90
22544;DHT22;11438;52.044;8.716;2023-07-31T02:33:59;20.20;99.90
22544;DHT22;11438;52.044;8.716;2023-07-31T02:36:25;20.20;99.90
22544;DHT22;11438;52.044;8.716;2023-07-31T02:38:51;20.10;99.90
22544;DHT22;11438;52.044;8.716;2023-07-31T02:41:17;20.10;99.90
22544;DHT22;11438;52.044;8.716;2023-07-31T02:43:42;20.10;99.90
22544;DHT22;11438;52.044;8.716;2023-07-31T02:46:08;20.10;99.90
22544;DHT22;11438;52.044;8.716;2023-07-31T02:48:34;20.10;99.90
22544;DHT22;11438;52.044;8.716;2023-07-31T02:50:59;20.10;99.90
22544;DHT22;11438;52.044;8.716;2023-07-31T02:53:25;20.10;99.90
22544;DHT22;11438;52.044;8.716;2023-07-31T02:55:50;20.10;99.90
22544;DHT22;11438;52.044;8.716;2023-07-31T02:58:16;20.00;99.90
22544;DHT22;11438;52.044;8.716;2023-07-31T03:00:43;20.00;99.90
22544;DHT22;11438;52.044;8.716;2023-07-31T03:03:09;20.00;99.90
22544;DHT22;11438;52.044;8.716;2023-07-31T03:05:35;20.00;99.90
22544;DHT22;11438;52.044;8.716;2023-07-31T03:08:01;20.00;99.90
22544;DHT22;11438;52.044;8.716;2023-07-31T03:10:27;20.00;99.90
22544;DHT22;11438;52.044;8.716;2023-07-31T03:12:52;20.00;99.90
22544;DHT22;11438;52.044;8.716;2023-07-31T03:15:18;20.00;99.90
22544;DHT22;11438;52.044;8.716;2023-07-31T03:17:44;20.00;99.90
22544;DHT22;11438;52.044;8.716;2023-07-31T03:20:10;20.00;99.90
22544;DHT22;11438;52.044;8.716;2023-07-31T03:22:35;20.00;99.90
22544;DHT22;11438;52.044;8.716;2023-07-31T03:25:02;20.00;99.90
22544;DHT22;11438;52.044;8.716;2023-07-31T03:27:28;20.00;99.90
22544;DHT22;11438;52.044;8.716;2023-07-31T03:29:53;20.00;99.90
22544;DHT22;11438;52.044;8.716;2023-07-31T03:32:19;20.00;99.90
22544;DHT22;11438;52.044;8.716;2023-07-31T03:34:44;20.00;99.90
22544;DHT22;11438;52.044;8.716;2023-07-31T03:37:10;19.90;99.90
22544;DHT22;11438;52.044;8.716;2023-07-31T03:39:36;20.00;99.90
22544;DHT22;11438;52.044;8.716;2023-07-31T03:42:01;19.90;99.90
22544;DHT22;11438;52.044;8.716;2023-07-31T03:44:27;19.90;99.90
22544;DHT22;11438;52.044;8.716;2023-07-31T03:46:52;19.90;99.90
22544;DHT22;11438;52.044;8.716;2023-07-31T03:49:18;19.90;99.90
22544;DHT22;11438;52.044;8.716;2023-07-31T03:51:43;19.90;99.90
22544;DHT22;11438;52.044;8.716;2023-07-31T03:54:10;19.90;99.90
22544;DHT22;11438;52.044;8.716;2023-07-31T03:56:35;19.90;99.90
22544;DHT22;11438;52.044;8.716;2023-07-31T03:59:01;19.90;99.90
22544;DHT22;11438;52.044;8.716;2023-07-31T04:01:26;19.90;99.90
22544;DHT22;11438;52.044;8.716;2023-07-31T04:03:52;19.90;99.90
22544;DHT22;11438;52.044;8.716;2023-07-31T04:06:18;19.90;99.90
22544;DHT22;11438;52.044;8.716;2023-07-31T04:08:44;20.00;99.90
22544;DHT22;11438;52.044;8.716;2023-07-31T04:11:10;19.90;99.90
22544;DHT22;11438;52.044;8.716;2023-07-31T04:13:37;19.90;99.90
22544;DHT22;11438;52.044;8.716;2023-07-31T04:16:02;19.90;99.90
22544;DHT22;11438;52.044;8.716;2023-07-31T04:18:28;20.00;99.90
22544;DHT22;11438;52.044;8.716;2023-07-31T04:20:56;20.00;99.90
22544;DHT22;11438;52.044;8.716;2023-07-31T04:23:22;20.00;99.90
22544;DHT22;11438;52.044;8.716;2023-07-31T04:25:47;20.00;99.90
22544;DHT22;11438;52.044;8.716;2023-07-31T04:28:13;20.00;99.90
22544;DHT22;11438;52.044;8.716;2023-07-31T04:30:39;20.00;99.90
22544;DHT22;11438;52.044;8.716;2023-07-31T04:33:04;20.00;99.90
22544;DHT22;11438;52.044;8.716;2023-07-31T04:35:30;20.00;99.90
22544;DHT22;11438;52.044;8.716;2023-07-31T04:37:55;20.00;99.90
22544;DHT22;11438;52.044;8.716;2023-07-31T04:40:21;20.00;99.90
22544;DHT22;11438;52.044;8.716;2023-07-31T04:42:47;20.00;99.90
22544;DHT22;11438;52.044;8.716;2023-07-31T04:45:14;20.00;99.90
22544;DHT22;11438;52.044;8.716;2023-07-31T04:47:40;20.00;99.90
22544;DHT22;11438;52.044;8.716;2023-07-31T04:50:06;20.00;99.90
22544;DHT22;11438;52.044;8.716;2023-07-31T04:52:31;20.00;99.90
22544;DHT22;11438;52.044;8.716;2023-07-31T04:54:57;20.00;99.90
22544;DHT22;11438;52.044;8.716;2023-07-31T04:57:22;20.00;99.90
22544;DHT22;11438;52.044;8.716;2023-07-31T04:59:48;20.00;99.90
22544;DHT22;11438;52.044;8.716;2023-07-31T05:02:13;20.00;99.90
22544;DHT22;11438;52.044;8.716;2023-07-31T05:04:39;20.00;99.90
22544;DHT22;11438;52.044;8.716;2023-07-31T05:07:05;20.00;99.90
22544;DHT22;11438;52.044;8.716;2023-07-31T05:09:30;20.00;99.90
22544;DHT22;11438;52.044;8.716;2023-07-31T05:11:56;20.00;99.90
22544;DHT22;11438;52.044;8.716;2023-07-31T05:14:22;20.00;99.90
22544;DHT22;11438;52.044;8.716;2023-07-31T05:16:47;20.00;99.90
22544;DHT22;11438;52.044;8.716;2023-07-31T05:19:13;20.00;99.90
22544;DHT22;11438;52.044;8.716;2023-07-31T05:21:38;20.00;99.90
22544;DHT22;11438;52.044;8.716;2023-07-31T05:24:05;20.00;99.90
22544;DHT22;11438;52.044;8.716;2023-07-31T05:26:30;20.00;99.90
22544;DHT22;11438;52.044;8.716;2023-07-31T05:28:56;20.00;99.90
22544;DHT22;11438;52.044;8.716;2023-07-31T05:31:23;20.00;99.90
22544;DHT22;11438;52.044;8.716;2023-07-31T05:33:50;20.00;99.90
22544;DHT22;11438;52.044;8.716;2023-07-31T05:36:16;20.00;99.90
22544;DHT22;11438;52.044;8.716;2023-07-31T05:38:41;20.00;99.90
22544;DHT22;11438;52.044;8.716;2023-07-31T05:41:11;20.10;99.90
22544;DHT22;11438;52.044;8.716;2023-07-31T05:43:37;20.00;99.90
22544;DHT22;11438;52.044;8.716;2023-07-31T05:46:02;20.00;99.90
22544;DHT22;11438;52.044;8.716;2023-07-31T05:48:28;20.00;99.90
22544;DHT22;11438;52.044;8.716;2023-07-31T05:50:53;20.10;99.90
22544;DHT22;11438;52.044;8.716;2023-07-31T05:53:19;20.10;99.90
22544;DHT22;11438;52.044;8.716;2023-07-31T05:55:44;20.10;99.90
22544;DHT22;11438;52.044;8.716;2023-07-31T05:58:10;20.10;99.90
22544;DHT22;11438;52.044;8.716;2023-07-31T06:00:36;20.10;99.90
22544;DHT22;11438;52.044;8.716;2023-07-31T06:03:01;20.10;99.90
22544;DHT22;11438;52.044;8.716;2023-07-31T06:05:27;20.10;99.90
22544;DHT22;11438;52.044;8.716;2023-07-31T06:07:54;20.10;99.90
22544;DHT22;11438;52.044;8.716;2023-07-31T06:10:20;20.10;99.90
22544;DHT22;11438;52.044;8.716;2023-07-31T06:12:45;20.10;99.90
22544;DHT22;11438;52.044;8.716;2023-07-31T06:15:10;20.10;99.90
22544;DHT22;11438;52.044;8.716;2023-07-31T06:17:36;20.10;99.90
22544;DHT22;11438;52.044;8.716;2023-07-31T06:20:03;20.20;99.90
22544;DHT22;11438;52.044;8.716;2023-07-31T06:22:30;20.20;99.90
22544;DHT22;11438;52.044;8.716;2023-07-31T06:24:56;20.20;99.90
22544;DHT22;11438;52.044;8.716;2023-07-31T06:27:21;20.20;99.90
22544;DHT22;11438;52.044;8.716;2023-07-31T06:29:47;20.20;99.90
22544;DHT22;11438;52.044;8.716;2023-07-31T06:32:13;20.20;99.90
22544;DHT22;11438;52.044;8.716;2023-07-31T06:34:39;20.30;99.90
22544;DHT22;11438;52.044;8.716;2023-07-31T06:37:04;20.20;99.90
22544;DHT22;11438;52.044;8.716;2023-07-31T06:39:30;20.30;99.90
22544;DHT22;11438;52.044;8.716;2023-07-31T06:41:56;20.30;99.90
22544;DHT22;11438;52.044;8.716;2023-07-31T06:44:21;20.30;99.90
22544;DHT22;11438;52.044;8.716;2023-07-31T06:46:46;20.30;99.90
22544;DHT22;11438;52.044;8.716;2023-07-31T06:49:12;20.30;99.90
22544;DHT22;11438;52.044;8.716;2023-07-31T06:51:40;20.30;99.90
22544;DHT22;11438;52.044;8.716;2023-07-31T06:54:06;20.30;99.90
22544;DHT22;11438;52.044;8.716;2023-07-31T06:56:31;20.40;99.90
22544;DHT22;11438;52.044;8.716;2023-07-31T06:58:57;20.40;99.90
22544;DHT22;11438;52.044;8.716;2023-07-31T07:01:22;20.40;99.90
22544;DHT22;11438;52.044;8.716;2023-07-31T07:03:48;20.40;99.90
22544;DHT22;11438;52.044;8.716;2023-07-31T07:06:16;20.40;99.90
22544;DHT22;11438;52.044;8.716;2023-07-31T07:08:42;20.40;99.90
22544;DHT22;11438;52.044;8.716;2023-07-31T07:11:07;20.40;99.90
22544;DHT22;11438;52.044;8.716;2023-07-31T07:13:33;20.50;99.90
22544;DHT22;11438;52.044;8.716;2023-07-31T07:15:59;20.50;99.90
22544;DHT22;11438;52.044;8.716;2023-07-31T07:18:24;20.50;99.90
22544;DHT22;11438;52.044;8.716;2023-07-31T07:20:51;20.50;99.90
22544;DHT22;11438;52.044;8.716;2023-07-31T07:23:17;20.50;99.90
22544;DHT22;11438;52.044;8.716;2023-07-31T07:25:44;20.60;99.90
22544;DHT22;11438;52.044;8.716;2023-07-31T07:28:10;20.60;99.90
22544;DHT22;11438;52.044;8.716;2023-07-31T07:30:36;20.60;99.90
22544;DHT22;11438;52.044;8.716;2023-07-31T07:33:02;20.60;99.90
22544;DHT22;11438;52.044;8.716;2023-07-31T07:35:27;20.70;99.90
22544;DHT22;11438;52.044;8.716;2023-07-31T07:37:53;20.70;99.90
22544;DHT22;11438;52.044;8.716;2023-07-31T07:40:19;20.70;99.90
22544;DHT22;11438;52.044;8.716;2023-07-31T07:42:45;20.70;99.90
22544;DHT22;11438;52.044;8.716;2023-07-31T07:45:10;20.70;99.90
22544;DHT22;11438;52.044;8.716;2023-07-31T07:47:37;20.70;99.90
22544;DHT22;11438;52.044;8.716;2023-07-31T07:50:03;20.70;99.90
22544;DHT22;11438;52.044;8.716;2023-07-31T07:52:28;20.80;99.90
22544;DHT22;11438;52.044;8.716;2023-07-31T07:54:54;20.80;99.90
22544;DHT22;11438;52.044;8.716;2023-07-31T07:57:20;20.80;99.90
22544;DHT22;11438;52.044;8.716;2023-07-31T07:59:45;20.90;99.90
22544;DHT22;11438;52.044;8.716;2023-07-31T08:02:11;20.80;99.90
22544;DHT22;11438;52.044;8.716;2023-07-31T08:04:36;20.80;99.90
22544;DHT22;11438;52.044;8.716;2023-07-31T08:07:02;20.80;99.90
22544;DHT22;11438;52.044;8.716;2023-07-31T08:09:28;20.90;99.90
22544;DHT22;11438;52.044;8.716;2023-07-31T08:11:53;20.90;99.90
22544;DHT22;11438;52.044;8.716;2023-07-31T08:14:19;20.80;99.90
22544;DHT22;11438;52.044;8.716;2023-07-31T08:16:45;20.90;99.90
22544;DHT22;11438;52.044;8.716;2023-07-31T08:19:11;20.90;99.90
22544;DHT22;11438;52.044;8.716;2023-07-31T08:21:36;20.80;99.90
22544;DHT22;11438;52.044;8.716;2023-07-31T08:24:02;20.80;99.90
22544;DHT22;11438;52.044;8.716;2023-07-31T08:26:27;20.80;99.90
22544;DHT22;11438;52.044;8.716;2023-07-31T08:28:53;20.80;99.90
22544;DHT22;11438;52.044;8.716;2023-07-31T08:31:19;20.80;99.90
22544;DHT22;11438;52.044;8.716;2023-07-31T08:33:44;20.80;99.90
22544;DHT22;11438;52.044;8.716;2023-07-31T08:36:10;20.80;99.90
22544;DHT22;11438;52.044;8.716;2023-07-31T08:38:35;20.80;99.90
22544;DHT22;11438;52.044;8.716;2023-07-31T08:41:03;20.80;99.90
22544;DHT22;11438;52.044;8.716;2023-07-31T08:43:30;20.90;99.90
22544;DHT22;11438;52.044;8.716;2023-07-31T08:45:56;20.90;99.90
22544;DHT22;11438;52.044;8.716;2023-07-31T08:48:23;21.00;99.90
22544;DHT22;11438;52.044;8.716;2023-07-31T08:50:48;21.00;99.90
22544;DHT22;11438;52.044;8.716;2023-07-31T08:53:14;21.00;99.90
22544;DHT22;11438;52.044;8.716;2023-07-31T08:55:40;21.10;99.90
22544;DHT22;11438;52.044;8.716;2023-07-31T08:58:05;21.10;99.90
22544;DHT22;11438;52.044;8.716;2023-07-31T09:00:32;21.20;99.90
22544;DHT22;11438;52.044;8.716;2023-07-31T09:03:03;21.30;99.90
22544;DHT22;11438;52.044;8.716;2023-07-31T09:05:30;21.30;99.90
22544;DHT22;11438;52.044;8.716;2023-07-31T09:07:57;21.40;99.90
22544;DHT22;11438;52.044;8.716;2023-07-31T09:10:23;21.50;99.90
22544;DHT22;11438;52.044;8.716;2023-07-31T09:12:50;21.60;99.90
22544;DHT22;11438;52.044;8.716;2023-07-31T09:15:17;21.70;99.90
22544;DHT22;11438;52.044;8.716;2023-07-31T09:17:42;21.80;99.90
22544;DHT22;11438;52.044;8.716;2023-07-31T09:20:16;21.80;99.90
22544;DHT22;11438;52.044;8.716;2023-07-31T09:22:42;21.90;99.90
22544;DHT22;11438;52.044;8.716;2023-07-31T09:25:19;21.90;99.90
22544;DHT22;11438;52.044;8.716;2023-07-31T09:27:59;22.00;99.90
22544;DHT22;11438;52.044;8.716;2023-07-31T09:30:25;22.00;99.90
22544;DHT22;11438;52.044;8.716;2023-07-31T09:33:02;22.00;99.90
22544;DHT22;11438;52.044;8.716;2023-07-31T09:35:35;22.00;99.90
22544;DHT22;11438;52.044;8.716;2023-07-31T09:38:11;22.00;99.90
22544;DHT22;11438;52.044;8.716;2023-07-31T09:40:39;22.00;99.90
22544;DHT22;11438;52.044;8.716;2023-07-31T09:43:07;22.10;99.90
22544;DHT22;11438;52.044;8.716;2023-07-31T09:45:40;22.10;99.90
22544;DHT22;11438;52.044;8.716;2023-07-31T09:48:16;22.10;99.90
22544;DHT22;11438;52.044;8.716;2023-07-31T09:50:52;22.20;99.90
22544;DHT22;11438;52.044;8.716;2023-07-31T09:53:18;22.20;99.90
22544;DHT22;11438;52.044;8.716;2023-07-31T09:55:44;22.20;99.90
22544;DHT22;11438;52.044;8.716;2023-07-31T09:58:11;22.20;99.90
22544;DHT22;11438;52.044;8.716;2023-07-31T10:00:37;22.30;99.90
22544;DHT22;11438;52.044;8.716;2023-07-31T10:03:10;22.30;99.90
22544;DHT22;11438;52.044;8.716;2023-07-31T10:05:40;22.40;99.90
22544;DHT22;11438;52.044;8.716;2023-07-31T10:08:07;22.40;99.90
22544;DHT22;11438;52.044;8.716;2023-07-31T10:10:36;22.40;99.90
22544;DHT22;11438;52.044;8.716;2023-07-31T10:13:01;22.50;99.90
22544;DHT22;11438;52.044;8.716;2023-07-31T10:15:28;22.50;99.90
22544;DHT22;11438;52.044;8.716;2023-07-31T10:17:55;22.50;99.90
22544;DHT22;11438;52.044;8.716;2023-07-31T10:20:21;22.50;99.90
22544;DHT22;11438;52.044;8.716;2023-07-31T10:22:48;22.60;99.90
22544;DHT22;11438;52.044;8.716;2023-07-31T10:25:15;22.60;99.90
22544;DHT22;11438;52.044;8.716;2023-07-31T10:27:41;22.60;99.90
22544;DHT22;11438;52.044;8.716;2023-07-31T10:30:16;22.60;99.90
22544;DHT22;11438;52.044;8.716;2023-07-31T10:32:44;22.70;99.90
22544;DHT22;11438;52.044;8.716;2023-07-31T10:35:11;22.70;99.90
22544;DHT22;11438;52.044;8.716;2023-07-31T10:37:41;22.70;99.90
22544;DHT22;11438;52.044;8.716;2023-07-31T10:40:25;22.70;99.90
22544;DHT22;11438;52.044;8.716;2023-07-31T10:42:52;22.70;99.90
22544;DHT22;11438;52.044;8.716;2023-07-31T10:45:34;22.70;99.90
22544;DHT22;11438;52.044;8.716;2023-07-31T10:48:17;22.70;99.90
22544;DHT22;11438;52.044;8.716;2023-07-31T10:50:59;22.70;99.90
22544;DHT22;11438;52.044;8.716;2023-07-31T10:53:29;22.70;99.90
22544;DHT22;11438;52.044;8.716;2023-07-31T10:55:58;22.70;99.90
22544;DHT22;11438;52.044;8.716;2023-07-31T10:58:24;22.80;99.90
22544;DHT22;11438;52.044;8.716;2023-07-31T11:00:55;22.80;99.90
22544;DHT22;11438;52.044;8.716;2023-07-31T11:03:25;22.80;99.90
22544;DHT22;11438;52.044;8.716;2023-07-31T11:06:04;22.80;99.90
22544;DHT22;11438;52.044;8.716;2023-07-31T11:08:30;22.80;99.90
22544;DHT22;11438;52.044;8.716;2023-07-31T11:13:32;22.80;99.90
22544;DHT22;11438;52.044;8.716;2023-07-31T11:15:58;22.90;99.90
22544;DHT22;11438;52.044;8.716;2023-07-31T11:18:26;22.80;99.90
22544;DHT22;11438;52.044;8.716;2023-07-31T11:20:52;22.80;99.90
22544;DHT22;11438;52.044;8.716;2023-07-31T11:23:19;22.80;99.90
22544;DHT22;11438;52.044;8.716;2023-07-31T11:25:45;22.70;99.90
22544;DHT22;11438;52.044;8.716;2023-07-31T11:28:13;22.80;99.90
22544;DHT22;11438;52.044;8.716;2023-07-31T11:30:41;22.80;99.90
22544;DHT22;11438;52.044;8.716;2023-07-31T11:33:08;22.80;99.90
22544;DHT22;11438;52.044;8.716;2023-07-31T11:35:36;22.80;99.90
22544;DHT22;11438;52.044;8.716;2023-07-31T11:38:07;22.80;99.90
22544;DHT22;11438;52.044;8.716;2023-07-31T11:40:41;22.80;99.90
22544;DHT22;11438;52.044;8.716;2023-07-31T11:43:07;22.80;99.90
22544;DHT22;11438;52.044;8.716;2023-07-31T11:45:33;22.90;99.90
22544;DHT22;11438;52.044;8.716;2023-07-31T11:48:00;22.90;99.90
22544;DHT22;11438;52.044;8.716;2023-07-31T11:50:26;22.90;99.90
22544;DHT22;11438;52.044;8.716;2023-07-31T11:52:58;22.90;99.90
22544;DHT22;11438;52.044;8.716;2023-07-31T11:55:25;22.90;99.90
22544;DHT22;11438;52.044;8.716;2023-07-31T11:57:52;22.90;99.90
22544;DHT22;11438;52.044;8.716;2023-07-31T12:00:18;22.80;99.90
22544;DHT22;11438;52.044;8.716;2023-07-31T12:02:44;22.80;99.90
22544;DHT22;11438;52.044;8.716;2023-07-31T12:05:13;22.80;99.90
22544;DHT22;11438;52.044;8.716;2023-07-31T12:07:47;22.80;99.90
22544;DHT22;11438;52.044;8.716;2023-07-31T12:10:26;22.80;99.90
22544;DHT22;11438;52.044;8.716;2023-07-31T12:13:12;22.80;99.90
22544;DHT22;11438;52.044;8.716;2023-07-31T12:15:45;22.80;99.90
22544;DHT22;11438;52.044;8.716;2023-07-31T12:18:19;22.80;99.90
22544;DHT22;11438;52.044;8.716;2023-07-31T12:20:47;22.80;99.90
22544;DHT22;11438;52.044;8.716;2023-07-31T12:23:17;22.80;99.90
22544;DHT22;11438;52.044;8.716;2023-07-31T12:25:42;22.80;99.90
22544;DHT22;11438;52.044;8.716;2023-07-31T12:28:08;22.80;99.90
22544;DHT22;11438;52.044;8.716;2023-07-31T12:30:37;22.80;99.90
22544;DHT22;11438;52.044;8.716;2023-07-31T12:33:12;22.80;99.90
22544;DHT22;11438;52.044;8.716;2023-07-31T12:35:38;22.80;99.90
22544;DHT22;11438;52.044;8.716;2023-07-31T12:38:06;22.90;99.90
22544;DHT22;11438;52.044;8.716;2023-07-31T12:40:32;22.90;99.90
22544;DHT22;11438;52.044;8.716;2023-07-31T12:42:58;22.90;99.90
22544;DHT22;11438;52.044;8.716;2023-07-31T12:45:24;22.90;99.90
22544;DHT22;11438;52.044;8.716;2023-07-31T12:47:49;22.90;99.90
22544;DHT22;11438;52.044;8.716;2023-07-31T12:50:15;22.90;99.90
22544;DHT22;11438;52.044;8.716;2023-07-31T12:52:41;22.90;99.90
22544;DHT22;11438;52.044;8.716;2023-07-31T12:55:07;23.00;99.90
22544;DHT22;11438;52.044;8.716;2023-07-31T12:57:32;22.90;99.90
22544;DHT22;11438;52.044;8.716;2023-07-31T12:59:58;22.90;99.90
22544;DHT22;11438;52.044;8.716;2023-07-31T13:02:23;22.90;99.90
22544;DHT22;11438;52.044;8.716;2023-07-31T13:04:49;22.90;99.90
22544;DHT22;11438;52.044;8.716;2023-07-31T13:07:15;22.90;99.90
22544;DHT22;11438;52.044;8.716;2023-07-31T13:09:41;22.90;99.90
22544;DHT22;11438;52.044;8.716;2023-07-31T13:12:07;22.80;99.90
22544;DHT22;11438;52.044;8.716;2023-07-31T13:14:32;22.80;99.90
22544;DHT22;11438;52.044;8.716;2023-07-31T13:16:58;22.80;99.90
22544;DHT22;11438;52.044;8.716;2023-07-31T13:19:23;22.70;99.90
22544;DHT22;11438;52.044;8.716;2023-07-31T13:21:49;22.60;99.90
22544;DHT22;11438;52.044;8.716;2023-07-31T13:24:14;22.60;99.90
22544;DHT22;11438;52.044;8.716;2023-07-31T13:26:40;22.70;99.90
22544;DHT22;11438;52.044;8.716;2023-07-31T13:29:05;22.70;99.90
22544;DHT22;11438;52.044;8.716;2023-07-31T13:31:31;22.80;99.90
22544;DHT22;11438;52.044;8.716;2023-07-31T13:33:56;22.90;99.90
22544;DHT22;11438;52.044;8.716;2023-07-31T13:36:22;23.00;99.90
22544;DHT22;11438;52.044;8.716;2023-07-31T13:38:48;23.10;99.90
22544;DHT22;11438;52.044;8.716;2023-07-31T13:41:13;23.20;99.90
22544;DHT22;11438;52.044;8.716;2023-07-31T13:43:39;23.30;99.90
22544;DHT22;11438;52.044;8.716;2023-07-31T13:46:04;23.40;99.90
22544;DHT22;11438;52.044;8.716;2023-07-31T13:48:34;23.50;99.90
22544;DHT22;11438;52.044;8.716;2023-07-31T13:51:00;23.60;99.90
22544;DHT22;11438;52.044;8.716;2023-07-31T13:53:26;23.70;99.90
22544;DHT22;11438;52.044;8.716;2023-07-31T13:55:51;23.70;99.90
22544;DHT22;11438;52.044;8.716;2023-07-31T13:58:17;23.80;99.90
22544;DHT22;11438;52.044;8.716;2023-07-31T14:00:43;23.90;99.90
22544;DHT22;11438;52.044;8.716;2023-07-31T14:03:09;23.90;99.90
22544;DHT22;11438;52.044;8.716;2023-07-31T14:05:35;23.90;99.90
22544;DHT22;11438;52.044;8.716;2023-07-31T14:08:00;24.00;99.90
22544;DHT22;11438;52.044;8.716;2023-07-31T14:10:26;23.90;99.90
22544;DHT22;11438;52.044;8.716;2023-07-31T14:12:51;23.90;99.90
22544;DHT22;11438;52.044;8.716;2023-07-31T14:15:17;23.90;99.90
22544;DHT22;11438;52.044;8.716;2023-07-31T14:17:42;24.00;99.90
22544;DHT22;11438;52.044;8.716;2023-07-31T14:20:09;23.90;99.90
22544;DHT22;11438;52.044;8.716;2023-07-31T14:22:34;24.00;99.90
22544;DHT22;11438;52.044;8.716;2023-07-31T14:25:01;24.00;99.90
22544;DHT22;11438;52.044;8.716;2023-07-31T14:27:26;23.90;99.90
22544;DHT22;11438;52.044;8.716;2023-07-31T14:29:52;23.90;99.90
22544;DHT22;11438;52.044;8.716;2023-07-31T14:32:17;23.90;99.90
22544;DHT22;11438;52.044;8.716;2023-07-31T14:34:43;23.80;99.90
22544;DHT22;11438;52.044;8.716;2023-07-31T14:37:08;23.80;99.90
22544;DHT22;11438;52.044;8.716;2023-07-31T14:39:34;23.80;99.90
22544;DHT22;11438;52.044;8.716;2023-07-31T14:41:59;23.70;99.90
22544;DHT22;11438;52.044;8.716;2023-07-31T14:44:25;23.60;99.90
22544;DHT22;11438;52.044;8.716;2023-07-31T14:46:50;23.60;99.90
22544;DHT22;11438;52.044;8.716;2023-07-31T14:49:16;23.50;99.90
22544;DHT22;11438;52.044;8.716;2023-07-31T14:51:41;23.50;99.90
22544;DHT22;11438;52.044;8.716;2023-07-31T14:54:07;23.50;99.90
22544;DHT22;11438;52.044;8.716;2023-07-31T14:56:32;23.50;99.90
22544;DHT22;11438;52.044;8.716;2023-07-31T14:58:58;23.40;99.90
22544;DHT22;11438;52.044;8.716;2023-07-31T15:01:23;23.40;99.90
22544;DHT22;11438;52.044;8.716;2023-07-31T15:03:49;23.30;99.90
22544;DHT22;11438;52.044;8.716;2023-07-31T15:06:14;23.40;99.90
22544;DHT22;11438;52.044;8.716;2023-07-31T15:08:40;23.30;99.90
22544;DHT22;11438;52.044;8.716;2023-07-31T15:11:07;23.40;99.90
22544;DHT22;11438;52.044;8.716;2023-07-31T15:13:33;23.30;99.90
22544;DHT22;11438;52.044;8.716;2023-07-31T15:15:59;23.30;99.90
22544;DHT22;11438;52.044;8.716;2023-07-31T15:18:24;23.30;99.90
22544;DHT22;11438;52.044;8.716;2023-07-31T15:20:50;23.30;99.90
22544;DHT22;11438;52.044;8.716;2023-07-31T15:23:15;23.40;99.90
22544;DHT22;11438;52.044;8.716;2023-07-31T15:25:41;23.50;99.90
22544;DHT22;11438;52.044;8.716;2023-07-31T15:28:07;23.50;99.90
22544;DHT22;11438;52.044;8.716;2023-07-31T15:30:35;23.50;99.90
22544;DHT22;11438;52.044;8.716;2023-07-31T15:33:01;23.50;99.90